sensor_id;sensor_type;location;lat;lon;timestamp;pressure;altitude;pressure_sealevel;temperature;humidity
41573;BME280;27286;47.870;19.006;2023-11-19T00:00:37;99753.09;;;1.88;69.65
41573;BME280;27286;47.870;19.006;2023-11-19T00:03:09;99570.19;;;0.77;71.27
41573;BME280;27286;47.870;19.006;2023-11-19T00:05:40;99538.56;;;0.55;71.76
41573;BME280;27286;47.870;19.006;2023-11-19T00:08:07;99654.78;;;1.20;71.64
41573;BME280;27286;47.870;19.006;2023-11-19T00:11:24;99564.19;;;0.55;72.41
41573;BME280;27286;47.870;19.006;2023-11-19T00:14:12;99631.72;;;1.03;71.64
41573;BME280;27286;47.870;19.006;2023-11-19T00:17:14;99574.44;;;0.60;72.23
41573;BME280;27286;47.870;19.006;2023-11-19T00:20:10;99574.41;;;0.43;72.53
41573;BME280;27286;47.870;19.006;2023-11-19T00:22:59;99715.47;;;1.32;72.54
41573;BME280;27286;47.870;19.006;2023-11-19T00:25:31;99666.75;;;1.12;71.92
41573;BME280;27286;47.870;19.006;2023-11-19T00:28:23;99564.16;;;0.49;71.53
41573;BME280;27286;47.870;19.006;2023-11-19T00:30:50;99801.88;;;2.09;71.90
41573;BME280;27286;47.870;19.006;2023-11-19T00:34:02;99796.75;;;1.92;72.77
41573;BME280;27286;47.870;19.006;2023-11-19T00:36:35;99775.34;;;1.83;73.66
41573;BME280;27286;47.870;19.006;2023-11-19T00:39:30;99780.47;;;1.96;73.38
41573;BME280;27286;47.870;19.006;2023-11-19T00:42:12;99546.25;;;0.62;72.58
41573;BME280;27286;47.870;19.006;2023-11-19T00:44:46;99786.44;;;2.15;73.01
41573;BME280;27286;47.870;19.006;2023-11-19T00:47:45;99797.59;;;2.08;72.94
41573;BME280;27286;47.870;19.006;2023-11-19T00:50:16;99559.91;;;0.83;72.06
41573;BME280;27286;47.870;19.006;2023-11-19T00:52:50;99594.09;;;1.16;72.65
41573;BME280;27286;47.870;19.006;2023-11-19T00:56:11;99771.03;;;2.14;72.42
41573;BME280;27286;47.870;19.006;2023-11-19T00:59:00;99630.84;;;1.26;71.82
41573;BME280;27286;47.870;19.006;2023-11-19T01:01:30;99683.84;;;1.48;72.99
41573;BME280;27286;47.870;19.006;2023-11-19T01:04:29;99631.69;;;0.97;73.00
41573;BME280;27286;47.870;19.006;2023-11-19T01:07:29;99577.88;;;0.73;72.58
41573;BME280;27286;47.870;19.006;2023-11-19T01:10:47;99796.72;;;2.01;72.30
41573;BME280;27286;47.870;19.006;2023-11-19T01:13:16;99547.94;;;0.67;72.35
41573;BME280;27286;47.870;19.006;2023-11-19T01:15:57;99700.94;;;1.60;72.50
41573;BME280;27286;47.870;19.006;2023-11-19T01:18:24;99694.97;;;1.39;73.12
41573;BME280;27286;47.870;19.006;2023-11-19T01:21:13;99536.00;;;0.45;72.47
41573;BME280;27286;47.870;19.006;2023-11-19T01:24:10;99693.25;;;1.46;72.15
41573;BME280;27286;47.870;19.006;2023-11-19T01:26:38;99571.00;;;0.63;72.33
41573;BME280;27286;47.870;19.006;2023-11-19T01:29:14;99672.72;;;1.31;72.18
41573;BME280;27286;47.870;19.006;2023-11-19T01:32:05;99513.78;;;0.27;72.93
41573;BME280;27286;47.870;19.006;2023-11-19T01:34:54;99638.53;;;0.84;73.60
41573;BME280;27286;47.870;19.006;2023-11-19T01:37:22;99722.31;;;1.31;73.51
41573;BME280;27286;47.870;19.006;2023-11-19T01:39:52;99584.66;;;0.46;74.41
41573;BME280;27286;47.870;19.006;2023-11-19T01:42:38;99640.22;;;0.73;74.68
41573;BME280;27286;47.870;19.006;2023-11-19T01:45:07;99581.25;;;0.47;74.00
41573;BME280;27286;47.870;19.006;2023-11-19T01:48:02;99619.72;;;0.81;73.63
41573;BME280;27286;47.870;19.006;2023-11-19T01:50:33;99485.63;;;0.24;72.96
41573;BME280;27286;47.870;19.006;2023-11-19T01:53:02;99541.97;;;0.60;73.33
41573;BME280;27286;47.870;19.006;2023-11-19T01:55:38;99513.78;;;0.47;73.00
41573;BME280;27286;47.870;19.006;2023-11-19T01:58:10;99499.25;;;0.29;72.23
41573;BME280;27286;47.870;19.006;2023-11-19T02:01:09;99509.50;;;0.24;72.24
41573;BME280;27286;47.870;19.006;2023-11-19T02:03:38;99645.38;;;1.24;72.19
41573;BME280;27286;47.870;19.006;2023-11-19T02:06:34;99593.25;;;0.88;72.54
41573;BME280;27286;47.870;19.006;2023-11-19T02:09:22;99618.03;;;1.10;72.45
41573;BME280;27286;47.870;19.006;2023-11-19T02:11:49;99499.28;;;0.20;72.96
41573;BME280;27286;47.870;19.006;2023-11-19T02:15:23;99580.44;;;0.68;73.21
41573;BME280;27286;47.870;19.006;2023-11-19T02:21:02;99740.28;;;1.57;73.68
41573;BME280;27286;47.870;19.006;2023-11-19T02:23:35;99511.22;;;0.33;72.87
41573;BME280;27286;47.870;19.006;2023-11-19T02:26:14;99659.91;;;1.28;73.28
41573;BME280;27286;47.870;19.006;2023-11-19T02:28:53;99484.75;;;0.20;73.88
41573;BME280;27286;47.870;19.006;2023-11-19T02:31:40;99642.81;;;1.24;74.20
41573;BME280;27286;47.870;19.006;2023-11-19T02:34:10;99483.91;;;0.30;73.82
41573;BME280;27286;47.870;19.006;2023-11-19T02:36:57;99489.03;;;0.23;74.04
41573;BME280;27286;47.870;19.006;2023-11-19T02:39:25;99525.75;;;0.48;74.87
41573;BME280;27286;47.870;19.006;2023-11-19T02:41:51;99611.16;;;0.83;75.23
41573;BME280;27286;47.870;19.006;2023-11-19T02:44:20;99691.53;;;1.43;75.91
41573;BME280;27286;47.870;19.006;2023-11-19T02:47:18;99599.25;;;0.88;74.61
41573;BME280;27286;47.870;19.006;2023-11-19T02:49:51;99694.09;;;1.42;74.40
41573;BME280;27286;47.870;19.006;2023-11-19T02:52:24;99454.88;;;0.09;74.62
41573;BME280;27286;47.870;19.006;2023-11-19T02:54:54;99446.31;;;-0.10;74.83
41573;BME280;27286;47.870;19.006;2023-11-19T02:57:40;99436.94;;;-0.02;74.74
41573;BME280;27286;47.870;19.006;2023-11-19T03:00:56;99684.69;;;1.45;74.34
41573;BME280;27286;47.870;19.006;2023-11-19T03:03:54;99530.88;;;0.36;74.83
41573;BME280;27286;47.870;19.006;2023-11-19T03:06:27;99465.09;;;-0.01;75.48
41573;BME280;27286;47.870;19.006;2023-11-19T03:09:32;99686.41;;;1.56;74.24
41573;BME280;27286;47.870;19.006;2023-11-19T03:12:43;99667.59;;;1.69;74.21
41573;BME280;27286;47.870;19.006;2023-11-19T03:15:34;99667.56;;;1.63;74.73
41573;BME280;27286;47.870;19.006;2023-11-19T03:18:33;99523.22;;;0.71;74.91
41573;BME280;27286;47.870;19.006;2023-11-19T03:21:30;99466.81;;;0.11;75.96
41573;BME280;27286;47.870;19.006;2023-11-19T03:24:16;99523.19;;;0.43;76.26
41573;BME280;27286;47.870;19.006;2023-11-19T03:27:07;99508.66;;;0.27;76.50
41573;BME280;27286;47.870;19.006;2023-11-19T03:29:34;99586.41;;;0.84;76.41
41573;BME280;27286;47.870;19.006;2023-11-19T03:32:04;99451.50;;;0.39;75.34
41573;BME280;27286;47.870;19.006;2023-11-19T03:34:36;99416.47;;;-0.07;75.57
41573;BME280;27286;47.870;19.006;2023-11-19T03:37:47;99396.84;;;-0.08;75.66
41573;BME280;27286;47.870;19.006;2023-11-19T03:40:19;99472.81;;;0.47;74.95
41573;BME280;27286;47.870;19.006;2023-11-19T03:43:08;99468.56;;;0.69;74.48
41573;BME280;27286;47.870;19.006;2023-11-19T03:45:41;99627.34;;;1.72;73.99
41573;BME280;27286;47.870;19.006;2023-11-19T03:48:13;99586.34;;;1.53;74.05
41573;BME280;27286;47.870;19.006;2023-11-19T03:50:44;99620.50;;;1.77;73.35
41573;BME280;27286;47.870;19.006;2023-11-19T03:53:31;99625.63;;;1.76;73.59
41573;BME280;27286;47.870;19.006;2023-11-19T03:56:06;99614.53;;;1.74;74.21
41573;BME280;27286;47.870;19.006;2023-11-19T03:58:41;99454.00;;;0.84;73.37
41573;BME280;27286;47.870;19.006;2023-11-19T04:01:28;99514.59;;;1.14;73.12
41573;BME280;27286;47.870;19.006;2023-11-19T04:04:03;99392.56;;;0.52;73.00
41573;BME280;27286;47.870;19.006;2023-11-19T04:06:44;99458.25;;;0.84;73.10
41573;BME280;27286;47.870;19.006;2023-11-19T04:09:35;99485.56;;;1.09;73.87
41573;BME280;27286;47.870;19.006;2023-11-19T04:12:22;99531.66;;;1.37;72.93
41573;BME280;27286;47.870;19.006;2023-11-19T04:15:20;99400.22;;;0.49;73.50
41573;BME280;27286;47.870;19.006;2023-11-19T04:17:46;99481.31;;;1.05;73.75
41573;BME280;27286;47.870;19.006;2023-11-19T04:20:37;99338.84;;;0.19;74.29
41573;BME280;27286;47.870;19.006;2023-11-19T04:23:46;99567.47;;;1.67;74.99
41573;BME280;27286;47.870;19.006;2023-11-19T04:26:18;99563.25;;;1.59;75.70
41573;BME280;27286;47.870;19.006;2023-11-19T04:29:04;99423.31;;;0.57;75.77
41573;BME280;27286;47.870;19.006;2023-11-19T04:31:51;99592.34;;;1.44;76.03
41573;BME280;27286;47.870;19.006;2023-11-19T04:34:17;99520.63;;;0.87;77.01
41573;BME280;27286;47.870;19.006;2023-11-19T04:37:18;99594.94;;;1.39;76.87
41573;BME280;27286;47.870;19.006;2023-11-19T04:39:50;99396.84;;;0.30;76.33
41573;BME280;27286;47.870;19.006;2023-11-19T04:43:00;99583.78;;;1.43;75.39
41573;BME280;27286;47.870;19.006;2023-11-19T04:45:46;99374.69;;;0.01;77.05
41573;BME280;27286;47.870;19.006;2023-11-19T04:48:38;99496.75;;;0.53;77.03
41573;BME280;27286;47.870;19.006;2023-11-19T04:51:15;99542.00;;;0.89;77.22
41573;BME280;27286;47.870;19.006;2023-11-19T04:54:06;99477.09;;;0.55;77.00
41573;BME280;27286;47.870;19.006;2023-11-19T04:56:38;99373.81;;;-0.11;76.50
41573;BME280;27286;47.870;19.006;2023-11-19T04:59:09;99543.69;;;0.98;76.84
41573;BME280;27286;47.870;19.006;2023-11-19T05:01:37;99419.88;;;0.30;76.45
41573;BME280;27286;47.870;19.006;2023-11-19T05:04:09;99466.00;;;0.46;76.87
41573;BME280;27286;47.870;19.006;2023-11-19T05:06:56;99361.00;;;-0.20;76.58
41573;BME280;27286;47.870;19.006;2023-11-19T05:09:28;99530.88;;;0.75;76.78
41573;BME280;27286;47.870;19.006;2023-11-19T05:12:17;99393.47;;;0.19;76.03
41573;BME280;27286;47.870;19.006;2023-11-19T05:14:45;99385.75;;;0.27;75.49
41573;BME280;27286;47.870;19.006;2023-11-19T05:17:18;99376.38;;;0.17;75.34
41573;BME280;27286;47.870;19.006;2023-11-19T05:20:06;99539.38;;;1.28;74.63
41573;BME280;27286;47.870;19.006;2023-11-19T05:22:56;99358.47;;;0.09;74.39
41573;BME280;27286;47.870;19.006;2023-11-19T05:25:46;99358.47;;;0.08;75.26
41573;BME280;27286;47.870;19.006;2023-11-19T05:28:13;99484.75;;;0.81;74.99
41573;BME280;27286;47.870;19.006;2023-11-19T05:31:35;99617.97;;;1.62;76.44
41573;BME280;27286;47.870;19.006;2023-11-19T05:34:06;99369.56;;;0.04;75.77
41573;BME280;27286;47.870;19.006;2023-11-19T05:36:32;99611.16;;;1.46;76.77
41573;BME280;27286;47.870;19.006;2023-11-19T05:39:29;99448.03;;;0.17;78.21
41573;BME280;27286;47.870;19.006;2023-11-19T05:42:18;99617.16;;;1.36;77.53
41573;BME280;27286;47.870;19.006;2023-11-19T05:44:47;99506.94;;;0.84;76.88
41573;BME280;27286;47.870;19.006;2023-11-19T05:47:31;99392.59;;;0.19;76.05
41573;BME280;27286;47.870;19.006;2023-11-19T05:50:42;99609.41;;;1.60;76.31
41573;BME280;27286;47.870;19.006;2023-11-19T05:53:33;99390.88;;;0.39;75.87
41573;BME280;27286;47.870;19.006;2023-11-19T05:56:13;99334.59;;;-0.14;75.81
41573;BME280;27286;47.870;19.006;2023-11-19T05:58:44;99451.47;;;0.63;77.15
41573;BME280;27286;47.870;19.006;2023-11-19T06:01:18;99344.81;;;0.13;76.58
41573;BME280;27286;47.870;19.006;2023-11-19T06:03:45;99575.22;;;1.57;76.65
41573;BME280;27286;47.870;19.006;2023-11-19T06:06:24;99576.94;;;1.52;77.01
41573;BME280;27286;47.870;19.006;2023-11-19T06:08:50;99571.78;;;1.61;76.69
41573;BME280;27286;47.870;19.006;2023-11-19T06:11:23;99328.59;;;0.16;76.23
41573;BME280;27286;47.870;19.006;2023-11-19T06:13:53;99516.31;;;1.18;76.81
41573;BME280;27286;47.870;19.006;2023-11-19T06:16:39;99367.84;;;0.06;77.85
41573;BME280;27286;47.870;19.006;2023-11-19T06:19:27;99361.84;;;-0.19;79.13
41573;BME280;27286;47.870;19.006;2023-11-19T06:22:18;99459.16;;;0.45;79.63
41573;BME280;27286;47.870;19.006;2023-11-19T06:25:21;99307.31;;;-0.32;79.42
41573;BME280;27286;47.870;19.006;2023-11-19T06:28:17;99582.06;;;1.45;78.62
41573;BME280;27286;47.870;19.006;2023-11-19T06:30:51;99467.66;;;0.89;78.72
41573;BME280;27286;47.870;19.006;2023-11-19T06:33:37;99564.16;;;1.36;78.84
41573;BME280;27286;47.870;19.006;2023-11-19T06:36:14;99482.97;;;1.12;78.32
41573;BME280;27286;47.870;19.006;2023-11-19T06:39:14;99331.13;;;0.28;77.83
41573;BME280;27286;47.870;19.006;2023-11-19T06:42:02;99566.59;;;1.79;78.42
41573;BME280;27286;47.870;19.006;2023-11-19T06:44:40;99329.38;;;0.48;77.84
41573;BME280;27286;47.870;19.006;2023-11-19T06:47:31;99550.25;;;1.97;78.44
41573;BME280;27286;47.870;19.006;2023-11-19T06:50:18;99395.91;;;0.79;79.10
41573;BME280;27286;47.870;19.006;2023-11-19T06:52:47;99522.19;;;1.49;79.59
41573;BME280;27286;47.870;19.006;2023-11-19T06:55:15;99587.16;;;1.71;80.29
41573;BME280;27286;47.870;19.006;2023-11-19T06:57:48;99378.91;;;0.58;80.03
41573;BME280;27286;47.870;19.006;2023-11-19T07:00:24;99362.66;;;0.70;79.50
41573;BME280;27286;47.870;19.006;2023-11-19T07:03:20;99364.34;;;0.65;79.79
41573;BME280;27286;47.870;19.006;2023-11-19T07:05:50;99359.22;;;0.71;79.93
41573;BME280;27286;47.870;19.006;2023-11-19T07:08:17;99561.41;;;1.84;80.55
41573;BME280;27286;47.870;19.006;2023-11-19T07:10:47;99297.88;;;0.13;80.88
41573;BME280;27286;47.870;19.006;2023-11-19T07:13:52;99574.28;;;1.85;80.70
41573;BME280;27286;47.870;19.006;2023-11-19T07:16:46;99430.91;;;1.03;80.50
41573;BME280;27286;47.870;19.006;2023-11-19T07:19:21;99350.72;;;0.50;81.57
41573;BME280;27286;47.870;19.006;2023-11-19T07:22:10;99481.22;;;1.37;81.54
41573;BME280;27286;47.870;19.006;2023-11-19T07:25:19;99335.38;;;0.43;81.37
41573;BME280;27286;47.870;19.006;2023-11-19T07:27:58;99342.19;;;0.48;81.62
41573;BME280;27286;47.870;19.006;2023-11-19T07:30:53;99458.16;;;1.30;82.26
41573;BME280;27286;47.870;19.006;2023-11-19T07:34:07;99362.66;;;0.60;82.26
41573;BME280;27286;47.870;19.006;2023-11-19T07:36:40;99299.56;;;0.14;82.85
41573;BME280;27286;47.870;19.006;2023-11-19T07:39:55;99398.47;;;0.91;81.87
41573;BME280;27286;47.870;19.006;2023-11-19T07:42:28;99523.00;;;1.65;81.45
41573;BME280;27286;47.870;19.006;2023-11-19T07:44:59;99535.78;;;1.79;81.78
41573;BME280;27286;47.870;19.006;2023-11-19T07:47:31;99373.69;;;0.87;82.02
41573;BME280;27286;47.870;19.006;2023-11-19T07:50:22;99368.53;;;0.98;82.27
41573;BME280;27286;47.870;19.006;2023-11-19T07:52:59;99327.59;;;0.75;81.85
41573;BME280;27286;47.870;19.006;2023-11-19T07:56:06;99340.38;;;0.90;81.95
41573;BME280;27286;47.870;19.006;2023-11-19T07:59:31;99339.50;;;0.91;82.86
41573;BME280;27286;47.870;19.006;2023-11-19T08:02:46;99337.75;;;1.04;83.28
41573;BME280;27286;47.870;19.006;2023-11-19T08:05:39;99446.84;;;1.75;83.63
41573;BME280;27286;47.870;19.006;2023-11-19T08:08:55;99286.63;;;0.72;83.13
41573;BME280;27286;47.870;19.006;2023-11-19T08:11:26;99486.94;;;1.94;83.30
41573;BME280;27286;47.870;19.006;2023-11-19T08:14:05;99373.50;;;1.33;83.37
41573;BME280;27286;47.870;19.006;2023-11-19T08:16:50;99266.13;;;0.66;83.36
41573;BME280;27286;47.870;19.006;2023-11-19T08:19:19;99287.41;;;0.89;83.99
41573;BME280;27286;47.870;19.006;2023-11-19T08:21:50;99295.03;;;1.01;83.99
41573;BME280;27286;47.870;19.006;2023-11-19T08:25:18;99306.03;;;1.22;83.76
41573;BME280;27286;47.870;19.006;2023-11-19T08:28:04;99435.56;;;2.02;83.83
41573;BME280;27286;47.870;19.006;2023-11-19T08:30:49;99494.16;;;2.64;84.14
41573;BME280;27286;47.870;19.006;2023-11-19T08:34:00;99282.75;;;1.50;83.92
41573;BME280;27286;47.870;19.006;2023-11-19T08:37:07;99486.31;;;2.78;83.18
41573;BME280;27286;47.870;19.006;2023-11-19T08:40:05;99426.88;;;2.20;84.12
41573;BME280;27286;47.870;19.006;2023-11-19T08:42:52;99429.16;;;2.53;83.72
41573;BME280;27286;47.870;19.006;2023-11-19T08:45:24;99344.81;;;2.01;83.15
41573;BME280;27286;47.870;19.006;2023-11-19T08:48:17;99325.16;;;1.97;83.13
41573;BME280;27286;47.870;19.006;2023-11-19T08:51:47;99495.53;;;3.00;82.92
41573;BME280;27286;47.870;19.006;2023-11-19T08:54:34;99254.66;;;1.34;84.28
41573;BME280;27286;47.870;19.006;2023-11-19T08:57:06;99413.25;;;2.07;84.50
41573;BME280;27286;47.870;19.006;2023-11-19T08:59:46;99352.94;;;1.43;86.11
41573;BME280;27286;47.870;19.006;2023-11-19T09:02:42;99327.41;;;1.17;87.03
41573;BME280;27286;47.870;19.006;2023-11-19T09:05:19;99338.78;;;0.52;85.97
41573;BME280;27286;47.870;19.006;2023-11-19T09:07:48;99273.16;;;-0.08;89.78
41573;BME280;27286;47.870;19.006;2023-11-19T09:10:17;99279.88;;;0.45;96.72
41573;BME280;27286;47.870;19.006;2023-11-19T09:16:17;99422.31;;;1.10;93.72
41573;BME280;27286;47.870;19.006;2023-11-19T09:18:43;99267.19;;;-0.03;92.36
41573;BME280;27286;47.870;19.006;2023-11-19T09:21:13;99404.47;;;0.76;91.82
41573;BME280;27286;47.870;19.006;2023-11-19T09:23:52;99511.91;;;1.60;93.53
41573;BME280;27286;47.870;19.006;2023-11-19T09:27:00;99412.13;;;0.93;91.89
41573;BME280;27286;47.870;19.006;2023-11-19T09:29:48;99247.56;;;-0.05;93.39
41573;BME280;27286;47.870;19.006;2023-11-19T09:32:28;99256.94;;;0.19;95.41
41573;BME280;27286;47.870;19.006;2023-11-19T09:35:06;99236.47;;;0.07;94.27
41573;BME280;27286;47.870;19.006;2023-11-19T09:37:55;99329.38;;;0.57;94.03
41573;BME280;27286;47.870;19.006;2023-11-19T09:40:28;99241.59;;;-0.07;94.85
41573;BME280;27286;47.870;19.006;2023-11-19T09:42:54;99211.78;;;-0.16;95.52
41573;BME280;27286;47.870;19.006;2023-11-19T09:46:02;99311.44;;;0.48;95.50
41573;BME280;27286;47.870;19.006;2023-11-19T09:48:39;99473.53;;;1.30;95.01
41573;BME280;27286;47.870;19.006;2023-11-19T09:51:10;99241.53;;;0.16;95.02
41573;BME280;27286;47.870;19.006;2023-11-19T09:53:39;99300.31;;;0.71;95.87
41573;BME280;27286;47.870;19.006;2023-11-19T09:56:13;99450.41;;;1.43;95.28
41573;BME280;27286;47.870;19.006;2023-11-19T09:59:05;99365.16;;;0.85;94.97
41573;BME280;27286;47.870;19.006;2023-11-19T10:02:23;99249.28;;;-0.06;95.38
41573;BME280;27286;47.870;19.006;2023-11-19T10:05:10;99362.63;;;0.67;96.21
41573;BME280;27286;47.870;19.006;2023-11-19T10:07:59;99459.88;;;1.25;96.74
41573;BME280;27286;47.870;19.006;2023-11-19T10:11:17;99224.47;;;0.24;99.47
41573;BME280;27286;47.870;19.006;2023-11-19T10:13:42;99452.91;;;1.59;98.65
41573;BME280;27286;47.870;19.006;2023-11-19T10:16:27;99205.75;;;0.08;97.75
41573;BME280;27286;47.870;19.006;2023-11-19T10:19:21;99232.91;;;0.52;99.48
41573;BME280;27286;47.870;19.006;2023-11-19T10:22:17;99441.72;;;1.72;97.14
41573;BME280;27286;47.870;19.006;2023-11-19T10:24:50;99234.66;;;0.39;95.82
41573;BME280;27286;47.870;19.006;2023-11-19T10:27:22;99292.56;;;0.80;95.96
41573;BME280;27286;47.870;19.006;2023-11-19T10:29:53;99371.69;;;1.53;97.83
41573;BME280;27286;47.870;19.006;2023-11-19T10:32:21;99216.75;;;0.39;95.41
41573;BME280;27286;47.870;19.006;2023-11-19T10:35:24;99422.13;;;1.59;95.50
41573;BME280;27286;47.870;19.006;2023-11-19T10:38:33;99329.94;;;1.27;96.05
41573;BME280;27286;47.870;19.006;2023-11-19T10:42:14;99410.88;;;1.78;96.96
41573;BME280;27286;47.870;19.006;2023-11-19T10:45:26;99302.66;;;1.13;96.08
41573;BME280;27286;47.870;19.006;2023-11-19T10:48:33;99209.75;;;0.73;96.44
41573;BME280;27286;47.870;19.006;2023-11-19T10:51:50;99236.94;;;0.97;97.15
41573;BME280;27286;47.870;19.006;2023-11-19T10:54:22;99145.81;;;0.49;97.12
41573;BME280;27286;47.870;19.006;2023-11-19T10:56:59;99330.63;;;1.56;97.86
41573;BME280;27286;47.870;19.006;2023-11-19T11:00:19;99211.28;;;1.00;98.36
41573;BME280;27286;47.870;19.006;2023-11-19T11:02:55;99286.13;;;1.59;98.88
41573;BME280;27286;47.870;19.006;2023-11-19T11:05:32;99124.53;;;0.44;96.76
41573;BME280;27286;47.870;19.006;2023-11-19T11:08:55;99359.19;;;2.24;96.50
41573;BME280;27286;47.870;19.006;2023-11-19T11:12:00;99183.03;;;1.09;95.80
41573;BME280;27286;47.870;19.006;2023-11-19T11:15:08;99094.53;;;0.63;96.25
41573;BME280;27286;47.870;19.006;2023-11-19T11:17:42;99359.91;;;2.39;96.72
41573;BME280;27286;47.870;19.006;2023-11-19T11:21:13;99132.78;;;0.84;94.69
41573;BME280;27286;47.870;19.006;2023-11-19T11:27:43;99337.66;;;2.34;94.91
41573;BME280;27286;47.870;19.006;2023-11-19T11:34:29;99138.75;;;0.90;96.13
41573;BME280;27286;47.870;19.006;2023-11-19T11:37:45;99113.97;;;0.93;97.20
41573;BME280;27286;47.870;19.006;2023-11-19T11:40:35;99063.84;;;0.56;96.74
41573;BME280;27286;47.870;19.006;2023-11-19T11:43:49;99056.13;;;0.58;96.74
41573;BME280;27286;47.870;19.006;2023-11-19T11:49:16;99050.75;;;0.90;95.13
41573;BME280;27286;47.870;19.006;2023-11-19T11:52:15;99174.16;;;1.53;95.21
41573;BME280;27286;47.870;19.006;2023-11-19T11:55:07;99298.88;;;2.60;97.01
41573;BME280;27286;47.870;19.006;2023-11-19T11:58:21;99292.09;;;2.54;94.43
41573;BME280;27286;47.870;19.006;2023-11-19T12:01:34;99294.50;;;2.65;93.97
41573;BME280;27286;47.870;19.006;2023-11-19T12:04:13;99042.81;;;1.20;93.91
41573;BME280;27286;47.870;19.006;2023-11-19T12:07:23;99086.09;;;1.49;93.68
41573;BME280;27286;47.870;19.006;2023-11-19T12:10:19;99159.88;;;2.09;92.98
41573;BME280;27286;47.870;19.006;2023-11-19T12:13:09;99174.25;;;2.25;93.21
41573;BME280;27286;47.870;19.006;2023-11-19T12:16:22;99038.50;;;1.23;92.46
41573;BME280;27286;47.870;19.006;2023-11-19T12:19:21;99269.47;;;2.81;92.47
41573;BME280;27286;47.870;19.006;2023-11-19T12:22:25;99034.06;;;1.38;91.35
41573;BME280;27286;47.870;19.006;2023-11-19T12:25:37;99141.91;;;2.07;93.14
41573;BME280;27286;47.870;19.006;2023-11-19T12:28:29;98999.78;;;1.45;93.13
41573;BME280;27286;47.870;19.006;2023-11-19T12:34:16;99088.22;;;1.91;92.87
41573;BME280;27286;47.870;19.006;2023-11-19T12:37:06;99098.19;;;2.14;94.54
41573;BME280;27286;47.870;19.006;2023-11-19T12:40:20;99170.47;;;2.54;93.40
41573;BME280;27286;47.870;19.006;2023-11-19T12:43:28;99210.28;;;2.88;92.88
41573;BME280;27286;47.870;19.006;2023-11-19T12:46:32;99217.00;;;2.95;92.89
41573;BME280;27286;47.870;19.006;2023-11-19T12:49:12;99035.44;;;1.65;92.32
41573;BME280;27286;47.870;19.006;2023-11-19T12:52:23;99099.91;;;2.13;92.94
41573;BME280;27286;47.870;19.006;2023-11-19T12:55:00;99132.16;;;2.35;91.93
41573;BME280;27286;47.870;19.006;2023-11-19T12:58:34;98957.28;;;1.25;91.82
41573;BME280;27286;47.870;19.006;2023-11-19T13:01:20;99199.16;;;2.83;93.83
41573;BME280;27286;47.870;19.006;2023-11-19T13:03:48;98963.16;;;1.36;94.65
41573;BME280;27286;47.870;19.006;2023-11-19T13:06:51;99154.19;;;2.53;94.84
41573;BME280;27286;47.870;19.006;2023-11-19T13:10:01;98955.25;;;1.49;95.85
41573;BME280;27286;47.870;19.006;2023-11-19T13:13:54;99160.63;;;2.82;94.96
41573;BME280;27286;47.870;19.006;2023-11-19T13:17:03;98985.78;;;1.71;95.65
41573;BME280;27286;47.870;19.006;2023-11-19T13:20:37;98998.34;;;1.92;94.96
41573;BME280;27286;47.870;19.006;2023-11-19T13:23:51;99199.09;;;2.89;94.95
41573;BME280;27286;47.870;19.006;2023-11-19T13:26:38;99195.50;;;3.01;96.36
41573;BME280;27286;47.870;19.006;2023-11-19T13:32:24;99188.81;;;2.89;96.61
41573;BME280;27286;47.870;19.006;2023-11-19T13:35:53;98955.69;;;1.82;97.47
41573;BME280;27286;47.870;19.006;2023-11-19T13:41:51;99051.03;;;2.21;95.43
41573;BME280;27286;47.870;19.006;2023-11-19T13:44:52;99039.00;;;2.24;94.70
41573;BME280;27286;47.870;19.006;2023-11-19T13:48:28;99162.25;;;2.90;96.16
41573;BME280;27286;47.870;19.006;2023-11-19T13:51:19;99155.28;;;2.95;96.78
41573;BME280;27286;47.870;19.006;2023-11-19T13:54:08;99021.16;;;2.14;96.73
41573;BME280;27286;47.870;19.006;2023-11-19T13:57:24;99025.78;;;1.89;97.23
41573;BME280;27286;47.870;19.006;2023-11-19T14:01:01;99042.38;;;2.26;98.29
41573;BME280;27286;47.870;19.006;2023-11-19T14:04:05;98999.88;;;2.05;97.74
41573;BME280;27286;47.870;19.006;2023-11-19T14:07:19;98950.69;;;1.74;98.73
41573;BME280;27286;47.870;19.006;2023-11-19T14:10:26;99148.25;;;3.08;99.48
41573;BME280;27286;47.870;19.006;2023-11-19T14:12:56;99073.81;;;2.44;99.12
41573;BME280;27286;47.870;19.006;2023-11-19T14:16:11;98955.88;;;1.70;99.97
41573;BME280;27286;47.870;19.006;2023-11-19T14:19:28;99032.16;;;2.23;100.00
41573;BME280;27286;47.870;19.006;2023-11-19T14:25:47;99085.81;;;2.43;100.00
41573;BME280;27286;47.870;19.006;2023-11-19T14:31:43;99180.13;;;2.98;100.00
41573;BME280;27286;47.870;19.006;2023-11-19T14:34:11;99078.94;;;2.44;100.00
41573;BME280;27286;47.870;19.006;2023-11-19T14:36:58;99084.66;;;2.64;100.00
41573;BME280;27286;47.870;19.006;2023-11-19T14:39:32;99111.69;;;2.89;100.00
41573;BME280;27286;47.870;19.006;2023-11-19T14:42:37;99079.03;;;2.39;100.00
41573;BME280;27286;47.870;19.006;2023-11-19T14:45:57;99157.09;;;2.90;100.00
41573;BME280;27286;47.870;19.006;2023-11-19T14:49:08;99165.72;;;2.86;100.00
41573;BME280;27286;47.870;19.006;2023-11-19T14:51:51;99082.75;;;2.15;100.00
41573;BME280;27286;47.870;19.006;2023-11-19T14:54:51;99020.72;;;1.81;100.00
41573;BME280;27286;47.870;19.006;2023-11-19T15:01:28;99188.25;;;2.69;100.00
41573;BME280;27286;47.870;19.006;2023-11-19T15:04:28;98951.88;;;1.46;100.00
41573;BME280;27286;47.870;19.006;2023-11-19T15:07:20;99039.19;;;2.09;100.00
41573;BME280;27286;47.870;19.006;2023-11-19T15:10:03;98962.03;;;1.55;100.00
41573;BME280;27286;47.870;19.006;2023-11-19T15:12:53;99169.16;;;2.85;100.00
41573;BME280;27286;47.870;19.006;2023-11-19T15:19:31;98987.63;;;1.61;100.00
41573;BME280;27286;47.870;19.006;2023-11-19T15:22:10;99060.72;;;1.97;100.00
41573;BME280;27286;47.870;19.006;2023-11-19T15:25:02;98919.44;;;1.43;100.00
41573;BME280;27286;47.870;19.006;2023-11-19T15:28:11;99155.53;;;2.79;100.00
41573;BME280;27286;47.870;19.006;2023-11-19T15:31:01;99094.31;;;2.47;100.00
41573;BME280;27286;47.870;19.006;2023-11-19T15:36:46;99082.28;;;2.50;100.00